sensor_id;sensor_type;location;lat;lon;timestamp;temperature;humidity
70986;DHT22;58645;43.068;25.610;2023-09-19T00:01:08;16.00;99.90
70986;DHT22;58645;43.068;25.610;2023-09-19T00:03:34;15.90;99.90
70986;DHT22;58645;43.068;25.610;2023-09-19T00:06:03;15.90;99.90
70986;DHT22;58645;43.068;25.610;2023-09-19T00:08:30;16.00;99.90
70986;DHT22;58645;43.068;25.610;2023-09-19T00:10:56;15.90;99.90
70986;DHT22;58645;43.068;25.610;2023-09-19T00:13:29;15.90;99.90
70986;DHT22;58645;43.068;25.610;2023-09-19T00:15:56;15.80;99.90
70986;DHT22;58645;43.068;25.610;2023-09-19T00:18:25;15.80;99.90
70986;DHT22;58645;43.068;25.610;2023-09-19T00:20:58;15.80;99.90
70986;DHT22;58645;43.068;25.610;2023-09-19T00:23:24;15.80;99.90
70986;DHT22;58645;43.068;25.610;2023-09-19T00:25:50;15.80;99.90
70986;DHT22;58645;43.068;25.610;2023-09-19T00:28:17;15.80;99.90
70986;DHT22;58645;43.068;25.610;2023-09-19T00:30:44;15.80;99.90
70986;DHT22;58645;43.068;25.610;2023-09-19T00:33:11;15.70;99.90
70986;DHT22;58645;43.068;25.610;2023-09-19T00:35:50;15.50;99.90
70986;DHT22;58645;43.068;25.610;2023-09-19T00:38:17;15.40;99.90
70986;DHT22;58645;43.068;25.610;2023-09-19T00:40:45;15.40;99.90
70986;DHT22;58645;43.068;25.610;2023-09-19T00:43:11;15.10;99.90
70986;DHT22;58645;43.068;25.610;2023-09-19T00:45:38;15.10;99.90
70986;DHT22;58645;43.068;25.610;2023-09-19T00:48:04;15.00;99.90
70986;DHT22;58645;43.068;25.610;2023-09-19T00:50:34;14.90;99.90
70986;DHT22;58645;43.068;25.610;2023-09-19T00:53:01;14.80;99.90
70986;DHT22;58645;43.068;25.610;2023-09-19T00:55:29;14.80;99.90
70986;DHT22;58645;43.068;25.610;2023-09-19T00:57:56;14.70;99.90
70986;DHT22;58645;43.068;25.610;2023-09-19T01:00:22;14.60;99.90
70986;DHT22;58645;43.068;25.610;2023-09-19T01:02:49;14.60;99.90
70986;DHT22;58645;43.068;25.610;2023-09-19T01:05:15;14.50;99.90
70986;DHT22;58645;43.068;25.610;2023-09-19T01:07:41;14.50;99.90
70986;DHT22;58645;43.068;25.610;2023-09-19T01:10:09;14.40;99.90
70986;DHT22;58645;43.068;25.610;2023-09-19T01:31:40;14.20;99.90
70986;DHT22;58645;43.068;25.610;2023-09-19T01:34:08;14.20;99.90
70986;DHT22;58645;43.068;25.610;2023-09-19T01:36:36;14.10;99.90
70986;DHT22;58645;43.068;25.610;2023-09-19T01:39:10;14.10;99.90
70986;DHT22;58645;43.068;25.610;2023-09-19T01:42:08;14.10;99.90
70986;DHT22;58645;43.068;25.610;2023-09-19T01:47:38;14.00;99.90
70986;DHT22;58645;43.068;25.610;2023-09-19T01:50:21;14.00;99.90
70986;DHT22;58645;43.068;25.610;2023-09-19T01:53:06;13.90;99.90
70986;DHT22;58645;43.068;25.610;2023-09-19T01:55:42;13.80;99.90
70986;DHT22;58645;43.068;25.610;2023-09-19T02:00:41;13.70;99.90
70986;DHT22;58645;43.068;25.610;2023-09-19T02:03:09;13.70;99.90
70986;DHT22;58645;43.068;25.610;2023-09-19T02:05:35;13.70;99.90
70986;DHT22;58645;43.068;25.610;2023-09-19T02:08:01;13.70;99.90
70986;DHT22;58645;43.068;25.610;2023-09-19T02:10:27;13.70;99.90
70986;DHT22;58645;43.068;25.610;2023-09-19T02:12:52;13.60;99.90
70986;DHT22;58645;43.068;25.610;2023-09-19T02:15:19;13.50;99.90
70986;DHT22;58645;43.068;25.610;2023-09-19T02:17:45;13.50;99.90
70986;DHT22;58645;43.068;25.610;2023-09-19T02:20:12;13.50;99.90
70986;DHT22;58645;43.068;25.610;2023-09-19T02:22:38;13.50;99.90
70986;DHT22;58645;43.068;25.610;2023-09-19T02:25:05;13.40;99.90
70986;DHT22;58645;43.068;25.610;2023-09-19T02:27:30;13.40;99.90
70986;DHT22;58645;43.068;25.610;2023-09-19T02:29:56;13.40;99.90
70986;DHT22;58645;43.068;25.610;2023-09-19T02:32:23;13.30;99.90
70986;DHT22;58645;43.068;25.610;2023-09-19T02:34:48;13.30;99.90
70986;DHT22;58645;43.068;25.610;2023-09-19T02:37:14;13.30;99.90
70986;DHT22;58645;43.068;25.610;2023-09-19T02:39:41;13.20;99.90
70986;DHT22;58645;43.068;25.610;2023-09-19T02:42:07;13.20;99.90
70986;DHT22;58645;43.068;25.610;2023-09-19T02:44:33;13.20;99.90
70986;DHT22;58645;43.068;25.610;2023-09-19T02:46:59;13.20;99.90
70986;DHT22;58645;43.068;25.610;2023-09-19T02:49:25;13.20;99.90
70986;DHT22;58645;43.068;25.610;2023-09-19T02:51:50;13.20;99.90
70986;DHT22;58645;43.068;25.610;2023-09-19T02:54:17;13.20;99.90
70986;DHT22;58645;43.068;25.610;2023-09-19T02:56:43;13.20;99.90
70986;DHT22;58645;43.068;25.610;2023-09-19T02:59:09;13.20;99.90
70986;DHT22;58645;43.068;25.610;2023-09-19T03:01:37;13.20;99.90
70986;DHT22;58645;43.068;25.610;2023-09-19T03:04:04;13.20;99.90
70986;DHT22;58645;43.068;25.610;2023-09-19T03:06:34;13.20;99.90
70986;DHT22;58645;43.068;25.610;2023-09-19T03:09:00;13.30;99.90
70986;DHT22;58645;43.068;25.610;2023-09-19T03:11:26;13.30;99.90
70986;DHT22;58645;43.068;25.610;2023-09-19T03:13:52;13.20;99.90
70986;DHT22;58645;43.068;25.610;2023-09-19T03:16:18;13.20;99.90
70986;DHT22;58645;43.068;25.610;2023-09-19T03:18:48;13.20;99.90
70986;DHT22;58645;43.068;25.610;2023-09-19T03:21:15;13.20;99.90
70986;DHT22;58645;43.068;25.610;2023-09-19T03:23:42;13.20;99.90
70986;DHT22;58645;43.068;25.610;2023-09-19T03:26:11;13.20;99.90
70986;DHT22;58645;43.068;25.610;2023-09-19T03:28:38;13.20;99.90
70986;DHT22;58645;43.068;25.610;2023-09-19T03:31:05;13.10;99.90
70986;DHT22;58645;43.068;25.610;2023-09-19T03:33:31;13.10;99.90
70986;DHT22;58645;43.068;25.610;2023-09-19T03:35:59;13.10;99.90
70986;DHT22;58645;43.068;25.610;2023-09-19T03:38:26;13.00;99.90
70986;DHT22;58645;43.068;25.610;2023-09-19T03:40:52;12.90;99.90
70986;DHT22;58645;43.068;25.610;2023-09-19T03:43:18;12.90;99.90
70986;DHT22;58645;43.068;25.610;2023-09-19T03:45:44;12.80;99.90
70986;DHT22;58645;43.068;25.610;2023-09-19T03:48:12;12.70;99.90
70986;DHT22;58645;43.068;25.610;2023-09-19T03:50:39;12.60;99.90
70986;DHT22;58645;43.068;25.610;2023-09-19T03:53:05;12.50;99.90
70986;DHT22;58645;43.068;25.610;2023-09-19T03:55:33;12.40;99.90
70986;DHT22;58645;43.068;25.610;2023-09-19T03:58:02;12.40;99.90
70986;DHT22;58645;43.068;25.610;2023-09-19T04:00:27;12.40;99.90
70986;DHT22;58645;43.068;25.610;2023-09-19T04:02:55;12.30;99.90
70986;DHT22;58645;43.068;25.610;2023-09-19T04:05:25;12.30;99.90
70986;DHT22;58645;43.068;25.610;2023-09-19T04:07:51;12.40;99.90
70986;DHT22;58645;43.068;25.610;2023-09-19T04:10:17;12.40;99.90
70986;DHT22;58645;43.068;25.610;2023-09-19T04:13:01;12.40;99.90
70986;DHT22;58645;43.068;25.610;2023-09-19T04:15:26;12.50;99.90
70986;DHT22;58645;43.068;25.610;2023-09-19T04:17:52;12.50;99.90
70986;DHT22;58645;43.068;25.610;2023-09-19T04:20:19;12.60;99.90
70986;DHT22;58645;43.068;25.610;2023-09-19T04:22:50;12.60;99.90
70986;DHT22;58645;43.068;25.610;2023-09-19T04:25:16;12.70;99.90
70986;DHT22;58645;43.068;25.610;2023-09-19T04:27:44;12.70;99.90
70986;DHT22;58645;43.068;25.610;2023-09-19T04:30:10;12.70;99.90
70986;DHT22;58645;43.068;25.610;2023-09-19T04:32:38;12.70;99.90
70986;DHT22;58645;43.068;25.610;2023-09-19T04:35:06;12.70;99.90
70986;DHT22;58645;43.068;25.610;2023-09-19T04:37:41;12.80;99.90
70986;DHT22;58645;43.068;25.610;2023-09-19T04:40:15;12.90;99.90
70986;DHT22;58645;43.068;25.610;2023-09-19T04:42:53;13.00;99.90
70986;DHT22;58645;43.068;25.610;2023-09-19T04:49:43;13.30;99.90
70986;DHT22;58645;43.068;25.610;2023-09-19T04:53:00;13.60;99.90
70986;DHT22;58645;43.068;25.610;2023-09-19T04:55:48;13.90;99.90
70986;DHT22;58645;43.068;25.610;2023-09-19T05:02:29;15.20;99.90
70986;DHT22;58645;43.068;25.610;2023-09-19T05:04:57;16.50;99.90
70986;DHT22;58645;43.068;25.610;2023-09-19T05:07:35;17.20;99.90
70986;DHT22;58645;43.068;25.610;2023-09-19T05:10:06;17.90;99.90
70986;DHT22;58645;43.068;25.610;2023-09-19T05:12:39;18.50;99.90
70986;DHT22;58645;43.068;25.610;2023-09-19T05:15:09;18.90;99.90
70986;DHT22;58645;43.068;25.610;2023-09-19T05:17:35;19.20;99.90
70986;DHT22;58645;43.068;25.610;2023-09-19T05:20:02;19.40;99.90
70986;DHT22;58645;43.068;25.610;2023-09-19T05:22:41;19.80;99.90
70986;DHT22;58645;43.068;25.610;2023-09-19T05:25:07;20.20;99.90
70986;DHT22;58645;43.068;25.610;2023-09-19T05:27:35;20.60;99.90
70986;DHT22;58645;43.068;25.610;2023-09-19T05:30:01;21.10;97.70
70986;DHT22;58645;43.068;25.610;2023-09-19T05:32:26;21.60;94.90
70986;DHT22;58645;43.068;25.610;2023-09-19T05:34:52;22.10;93.80
70986;DHT22;58645;43.068;25.610;2023-09-19T05:37:22;22.50;89.90
70986;DHT22;58645;43.068;25.610;2023-09-19T05:39:49;23.00;87.40
70986;DHT22;58645;43.068;25.610;2023-09-19T05:45:52;24.00;82.50
70986;DHT22;58645;43.068;25.610;2023-09-19T05:48:18;24.40;79.80
70986;DHT22;58645;43.068;25.610;2023-09-19T05:50:44;24.50;77.10
70986;DHT22;58645;43.068;25.610;2023-09-19T05:53:18;24.70;76.00
70986;DHT22;58645;43.068;25.610;2023-09-19T05:56:02;25.00;73.40
70986;DHT22;58645;43.068;25.610;2023-09-19T05:58:27;25.20;71.30
70986;DHT22;58645;43.068;25.610;2023-09-19T06:01:03;25.40;70.40
70986;DHT22;58645;43.068;25.610;2023-09-19T06:03:35;25.70;68.40
70986;DHT22;58645;43.068;25.610;2023-09-19T06:06:02;25.90;66.00
70986;DHT22;58645;43.068;25.610;2023-09-19T06:08:28;26.20;65.30
70986;DHT22;58645;43.068;25.610;2023-09-19T06:10:54;26.20;64.10
70986;DHT22;58645;43.068;25.610;2023-09-19T06:13:40;26.30;64.00
70986;DHT22;58645;43.068;25.610;2023-09-19T06:16:13;26.50;62.90
70986;DHT22;58645;43.068;25.610;2023-09-19T06:18:39;26.60;62.20
70986;DHT22;58645;43.068;25.610;2023-09-19T06:21:06;27.00;60.90
70986;DHT22;58645;43.068;25.610;2023-09-19T06:23:36;27.20;59.70
70986;DHT22;58645;43.068;25.610;2023-09-19T06:26:04;27.70;57.60
70986;DHT22;58645;43.068;25.610;2023-09-19T06:28:32;27.90;56.20
70986;DHT22;58645;43.068;25.610;2023-09-19T06:31:01;28.00;56.10
70986;DHT22;58645;43.068;25.610;2023-09-19T06:33:30;27.50;57.10
70986;DHT22;58645;43.068;25.610;2023-09-19T06:35:56;26.90;58.20
70986;DHT22;58645;43.068;25.610;2023-09-19T06:38:25;27.00;59.50
70986;DHT22;58645;43.068;25.610;2023-09-19T06:40:54;27.70;56.70
70986;DHT22;58645;43.068;25.610;2023-09-19T06:43:30;27.90;55.50
70986;DHT22;58645;43.068;25.610;2023-09-19T06:46:00;28.80;53.30
70986;DHT22;58645;43.068;25.610;2023-09-19T06:48:34;28.90;52.70
70986;DHT22;58645;43.068;25.610;2023-09-19T06:54:52;29.30;52.10
70986;DHT22;58645;43.068;25.610;2023-09-19T06:57:18;29.40;51.20
70986;DHT22;58645;43.068;25.610;2023-09-19T06:59:48;29.40;51.60
70986;DHT22;58645;43.068;25.610;2023-09-19T07:02:14;29.60;50.60
70986;DHT22;58645;43.068;25.610;2023-09-19T07:04:40;29.90;49.40
70986;DHT22;58645;43.068;25.610;2023-09-19T07:07:06;30.40;49.50
70986;DHT22;58645;43.068;25.610;2023-09-19T07:09:34;30.40;49.20
70986;DHT22;58645;43.068;25.610;2023-09-19T07:12:00;30.40;48.70
70986;DHT22;58645;43.068;25.610;2023-09-19T07:14:26;30.80;48.10
70986;DHT22;58645;43.068;25.610;2023-09-19T07:16:52;31.40;46.70
70986;DHT22;58645;43.068;25.610;2023-09-19T07:19:18;31.50;46.70
70986;DHT22;58645;43.068;25.610;2023-09-19T07:21:44;31.30;46.10
70986;DHT22;58645;43.068;25.610;2023-09-19T07:24:10;31.40;46.10
70986;DHT22;58645;43.068;25.610;2023-09-19T07:26:35;31.70;45.00
70986;DHT22;58645;43.068;25.610;2023-09-19T07:29:01;31.80;44.90
70986;DHT22;58645;43.068;25.610;2023-09-19T07:31:34;32.20;44.80
70986;DHT22;58645;43.068;25.610;2023-09-19T07:34:00;32.80;42.40
70986;DHT22;58645;43.068;25.610;2023-09-19T07:37:38;33.00;42.00
70986;DHT22;58645;43.068;25.610;2023-09-19T07:42:58;33.40;40.30
70986;DHT22;58645;43.068;25.610;2023-09-19T07:45:28;33.60;39.50
70986;DHT22;58645;43.068;25.610;2023-09-19T07:48:02;34.20;38.70
70986;DHT22;58645;43.068;25.610;2023-09-19T07:50:30;34.00;39.40
70986;DHT22;58645;43.068;25.610;2023-09-19T07:52:55;34.20;38.80
70986;DHT22;58645;43.068;25.610;2023-09-19T07:55:22;34.20;38.90
70986;DHT22;58645;43.068;25.610;2023-09-19T07:57:54;34.90;37.80
70986;DHT22;58645;43.068;25.610;2023-09-19T08:00:20;34.80;36.50
70986;DHT22;58645;43.068;25.610;2023-09-19T08:02:45;35.00;37.10
70986;DHT22;58645;43.068;25.610;2023-09-19T08:05:12;35.00;36.20
70986;DHT22;58645;43.068;25.610;2023-09-19T08:07:42;35.20;36.70
70986;DHT22;58645;43.068;25.610;2023-09-19T08:10:10;35.70;34.60
70986;DHT22;58645;43.068;25.610;2023-09-19T08:12:46;35.40;35.10
70986;DHT22;58645;43.068;25.610;2023-09-19T08:15:16;35.10;35.90
70986;DHT22;58645;43.068;25.610;2023-09-19T08:17:42;35.50;34.80
70986;DHT22;58645;43.068;25.610;2023-09-19T08:20:09;35.60;34.50
70986;DHT22;58645;43.068;25.610;2023-09-19T08:22:49;35.70;33.90
70986;DHT22;58645;43.068;25.610;2023-09-19T08:25:18;35.70;31.50
70986;DHT22;58645;43.068;25.610;2023-09-19T08:27:44;35.90;31.90
70986;DHT22;58645;43.068;25.610;2023-09-19T08:30:19;36.00;31.10
70986;DHT22;58645;43.068;25.610;2023-09-19T08:33:02;36.10;31.20
70986;DHT22;58645;43.068;25.610;2023-09-19T08:35:31;36.00;29.70
70986;DHT22;58645;43.068;25.610;2023-09-19T08:37:56;36.10;28.80
70986;DHT22;58645;43.068;25.610;2023-09-19T08:40:23;36.40;27.90
70986;DHT22;58645;43.068;25.610;2023-09-19T08:42:53;36.70;29.10
70986;DHT22;58645;43.068;25.610;2023-09-19T08:45:24;36.60;29.20
70986;DHT22;58645;43.068;25.610;2023-09-19T08:50:31;36.10;28.30
70986;DHT22;58645;43.068;25.610;2023-09-19T08:53:10;36.00;26.60
70986;DHT22;58645;43.068;25.610;2023-09-19T08:55:37;36.00;26.10
70986;DHT22;58645;43.068;25.610;2023-09-19T08:58:10;36.00;28.50
70986;DHT22;58645;43.068;25.610;2023-09-19T09:00:36;36.30;27.90
70986;DHT22;58645;43.068;25.610;2023-09-19T09:03:03;36.30;26.40
70986;DHT22;58645;43.068;25.610;2023-09-19T09:05:33;36.60;25.20
70986;DHT22;58645;43.068;25.610;2023-09-19T09:08:02;36.90;26.00
70986;DHT22;58645;43.068;25.610;2023-09-19T09:10:31;37.10;26.40
70986;DHT22;58645;43.068;25.610;2023-09-19T09:12:58;36.10;26.90
70986;DHT22;58645;43.068;25.610;2023-09-19T09:15:24;36.20;26.80
70986;DHT22;58645;43.068;25.610;2023-09-19T09:17:51;36.40;27.20
70986;DHT22;58645;43.068;25.610;2023-09-19T09:20:19;36.20;26.70
70986;DHT22;58645;43.068;25.610;2023-09-19T09:22:52;35.80;27.20
70986;DHT22;58645;43.068;25.610;2023-09-19T09:25:52;35.70;27.50
70986;DHT22;58645;43.068;25.610;2023-09-19T09:28:21;35.40;28.50
70986;DHT22;58645;43.068;25.610;2023-09-19T09:30:47;36.10;27.20
70986;DHT22;58645;43.068;25.610;2023-09-19T09:33:14;36.50;26.40
70986;DHT22;58645;43.068;25.610;2023-09-19T09:35:51;37.00;28.10
70986;DHT22;58645;43.068;25.610;2023-09-19T09:38:23;36.90;27.10
70986;DHT22;58645;43.068;25.610;2023-09-19T09:40:54;36.30;26.30
70986;DHT22;58645;43.068;25.610;2023-09-19T09:43:34;35.00;27.40
70986;DHT22;58645;43.068;25.610;2023-09-19T09:46:07;34.40;28.20
70986;DHT22;58645;43.068;25.610;2023-09-19T09:49:10;34.80;27.40
70986;DHT22;58645;43.068;25.610;2023-09-19T09:51:44;34.60;26.50
70986;DHT22;58645;43.068;25.610;2023-09-19T09:54:24;34.10;28.00
70986;DHT22;58645;43.068;25.610;2023-09-19T09:59:44;32.50;31.10
70986;DHT22;58645;43.068;25.610;2023-09-19T10:02:19;31.60;34.00
70986;DHT22;58645;43.068;25.610;2023-09-19T10:04:57;31.50;35.60
70986;DHT22;58645;43.068;25.610;2023-09-19T10:07:41;32.60;33.40
70986;DHT22;58645;43.068;25.610;2023-09-19T10:10:13;33.60;31.90
70986;DHT22;58645;43.068;25.610;2023-09-19T10:12:47;33.90;30.90
70986;DHT22;58645;43.068;25.610;2023-09-19T10:15:16;34.80;29.30
70986;DHT22;58645;43.068;25.610;2023-09-19T10:17:44;35.20;29.20
70986;DHT22;58645;43.068;25.610;2023-09-19T10:20:16;35.70;28.80
70986;DHT22;58645;43.068;25.610;2023-09-19T10:22:50;36.00;26.80
70986;DHT22;58645;43.068;25.610;2023-09-19T10:25:26;36.00;27.00
70986;DHT22;58645;43.068;25.610;2023-09-19T10:27:54;35.40;28.10
70986;DHT22;58645;43.068;25.610;2023-09-19T10:30:24;34.70;29.50
70986;DHT22;58645;43.068;25.610;2023-09-19T10:33:13;34.20;31.20
70986;DHT22;58645;43.068;25.610;2023-09-19T10:35:42;32.90;32.90
70986;DHT22;58645;43.068;25.610;2023-09-19T10:38:13;32.00;35.50
70986;DHT22;58645;43.068;25.610;2023-09-19T10:40:40;31.40;36.80
70986;DHT22;58645;43.068;25.610;2023-09-19T10:43:12;31.00;37.10
70986;DHT22;58645;43.068;25.610;2023-09-19T10:45:39;31.20;38.00
70986;DHT22;58645;43.068;25.610;2023-09-19T10:48:06;32.30;36.80
70986;DHT22;58645;43.068;25.610;2023-09-19T10:51:05;33.50;35.50
70986;DHT22;58645;43.068;25.610;2023-09-19T10:54:19;34.00;33.50
70986;DHT22;58645;43.068;25.610;2023-09-19T10:56:49;34.50;32.00
70986;DHT22;58645;43.068;25.610;2023-09-19T10:59:18;34.80;30.40
70986;DHT22;58645;43.068;25.610;2023-09-19T11:01:53;35.60;30.00
70986;DHT22;58645;43.068;25.610;2023-09-19T11:04:35;35.40;30.40
70986;DHT22;58645;43.068;25.610;2023-09-19T11:07:10;35.70;29.40
70986;DHT22;58645;43.068;25.610;2023-09-19T11:09:56;35.60;29.50
70986;DHT22;58645;43.068;25.610;2023-09-19T11:26:43;34.50;30.70
70986;DHT22;58645;43.068;25.610;2023-09-19T11:29:30;34.20;31.10
70986;DHT22;58645;43.068;25.610;2023-09-19T11:31:57;33.40;32.20
70986;DHT22;58645;43.068;25.610;2023-09-19T11:40:06;31.50;34.80
70986;DHT22;58645;43.068;25.610;2023-09-19T11:48:16;31.30;36.20
70986;DHT22;58645;43.068;25.610;2023-09-19T11:50:45;32.00;35.40
70986;DHT22;58645;43.068;25.610;2023-09-19T11:53:13;32.70;33.70
70986;DHT22;58645;43.068;25.610;2023-09-19T11:55:40;33.00;33.00
70986;DHT22;58645;43.068;25.610;2023-09-19T11:58:09;33.20;32.90
70986;DHT22;58645;43.068;25.610;2023-09-19T12:00:38;33.70;32.60
70986;DHT22;58645;43.068;25.610;2023-09-19T12:03:09;34.10;31.50
70986;DHT22;58645;43.068;25.610;2023-09-19T12:05:36;34.20;31.70
70986;DHT22;58645;43.068;25.610;2023-09-19T12:08:04;34.40;32.20
70986;DHT22;58645;43.068;25.610;2023-09-19T12:10:33;33.90;31.00
70986;DHT22;58645;43.068;25.610;2023-09-19T12:12:59;34.00;31.90
70986;DHT22;58645;43.068;25.610;2023-09-19T12:15:28;34.00;31.90
70986;DHT22;58645;43.068;25.610;2023-09-19T12:18:00;34.00;31.80
70986;DHT22;58645;43.068;25.610;2023-09-19T12:20:45;34.50;30.90
70986;DHT22;58645;43.068;25.610;2023-09-19T12:23:16;34.80;31.40
70986;DHT22;58645;43.068;25.610;2023-09-19T12:25:43;34.80;29.80
70986;DHT22;58645;43.068;25.610;2023-09-19T12:28:15;35.00;30.20
70986;DHT22;58645;43.068;25.610;2023-09-19T12:30:42;35.20;29.90
70986;DHT22;58645;43.068;25.610;2023-09-19T12:33:19;35.40;29.80
70986;DHT22;58645;43.068;25.610;2023-09-19T12:35:51;35.10;30.00
70986;DHT22;58645;43.068;25.610;2023-09-19T12:38:26;34.60;30.50
70986;DHT22;58645;43.068;25.610;2023-09-19T12:40:59;33.70;31.30
70986;DHT22;58645;43.068;25.610;2023-09-19T12:43:26;33.20;32.80
70986;DHT22;58645;43.068;25.610;2023-09-19T12:45:53;32.70;33.60
70986;DHT22;58645;43.068;25.610;2023-09-19T12:53:44;31.40;35.80
70986;DHT22;58645;43.068;25.610;2023-09-19T12:56:18;31.00;36.10
70986;DHT22;58645;43.068;25.610;2023-09-19T12:58:53;30.90;36.60
70986;DHT22;58645;43.068;25.610;2023-09-19T13:01:23;30.60;36.60
70986;DHT22;58645;43.068;25.610;2023-09-19T13:04:18;30.60;36.60
70986;DHT22;58645;43.068;25.610;2023-09-19T13:06:51;30.60;36.70
70986;DHT22;58645;43.068;25.610;2023-09-19T13:09:20;30.40;36.70
70986;DHT22;58645;43.068;25.610;2023-09-19T13:11:47;30.30;38.10
70986;DHT22;58645;43.068;25.610;2023-09-19T13:17:02;30.10;37.50
70986;DHT22;58645;43.068;25.610;2023-09-19T13:19:57;30.10;37.50
70986;DHT22;58645;43.068;25.610;2023-09-19T13:22:45;29.70;37.50
70986;DHT22;58645;43.068;25.610;2023-09-19T13:25:18;29.60;38.00
70986;DHT22;58645;43.068;25.610;2023-09-19T13:27:45;29.60;38.60
70986;DHT22;58645;43.068;25.610;2023-09-19T13:30:14;29.60;38.30
70986;DHT22;58645;43.068;25.610;2023-09-19T13:32:41;29.60;38.20
70986;DHT22;58645;43.068;25.610;2023-09-19T13:35:08;29.50;38.10
70986;DHT22;58645;43.068;25.610;2023-09-19T13:37:39;29.50;38.60
70986;DHT22;58645;43.068;25.610;2023-09-19T13:40:12;29.30;38.00
70986;DHT22;58645;43.068;25.610;2023-09-19T13:42:38;29.10;38.50
70986;DHT22;58645;43.068;25.610;2023-09-19T13:45:04;29.10;39.30
70986;DHT22;58645;43.068;25.610;2023-09-19T13:47:31;29.10;38.00
70986;DHT22;58645;43.068;25.610;2023-09-19T13:49:58;29.10;38.80
70986;DHT22;58645;43.068;25.610;2023-09-19T13:52:24;29.00;36.80
70986;DHT22;58645;43.068;25.610;2023-09-19T13:54:50;28.90;36.60
70986;DHT22;58645;43.068;25.610;2023-09-19T13:57:16;28.80;36.30
70986;DHT22;58645;43.068;25.610;2023-09-19T13:59:42;28.70;36.60
70986;DHT22;58645;43.068;25.610;2023-09-19T14:02:08;28.80;36.40
70986;DHT22;58645;43.068;25.610;2023-09-19T14:04:34;28.70;36.70
70986;DHT22;58645;43.068;25.610;2023-09-19T14:07:02;28.50;36.80
70986;DHT22;58645;43.068;25.610;2023-09-19T14:09:29;28.40;37.00
70986;DHT22;58645;43.068;25.610;2023-09-19T14:11:54;28.40;36.20
70986;DHT22;58645;43.068;25.610;2023-09-19T14:14:20;28.40;35.90
70986;DHT22;58645;43.068;25.610;2023-09-19T14:16:47;28.30;35.90
70986;DHT22;58645;43.068;25.610;2023-09-19T14:19:13;28.30;36.30
70986;DHT22;58645;43.068;25.610;2023-09-19T14:21:42;28.30;36.30
70986;DHT22;58645;43.068;25.610;2023-09-19T14:24:08;28.20;36.30
70986;DHT22;58645;43.068;25.610;2023-09-19T14:26:38;28.20;36.30
70986;DHT22;58645;43.068;25.610;2023-09-19T14:29:04;28.10;36.30
70986;DHT22;58645;43.068;25.610;2023-09-19T14:31:33;28.00;36.40
70986;DHT22;58645;43.068;25.610;2023-09-19T14:33:59;27.90;36.60
70986;DHT22;58645;43.068;25.610;2023-09-19T14:36:25;27.80;37.10
70986;DHT22;58645;43.068;25.610;2023-09-19T14:38:55;27.70;37.60
70986;DHT22;58645;43.068;25.610;2023-09-19T14:41:23;27.50;37.70
70986;DHT22;58645;43.068;25.610;2023-09-19T14:43:51;27.50;37.90
70986;DHT22;58645;43.068;25.610;2023-09-19T14:46:18;27.40;38.40
70986;DHT22;58645;43.068;25.610;2023-09-19T14:48:45;27.40;38.70
70986;DHT22;58645;43.068;25.610;2023-09-19T14:51:13;27.30;39.30
70986;DHT22;58645;43.068;25.610;2023-09-19T14:53:40;27.30;39.30
70986;DHT22;58645;43.068;25.610;2023-09-19T14:56:10;27.20;39.50
70986;DHT22;58645;43.068;25.610;2023-09-19T14:58:37;27.20;40.30
70986;DHT22;58645;43.068;25.610;2023-09-19T15:01:07;27.30;40.10
70986;DHT22;58645;43.068;25.610;2023-09-19T15:03:34;27.30;38.60
70986;DHT22;58645;43.068;25.610;2023-09-19T15:06:05;27.30;38.40
70986;DHT22;58645;43.068;25.610;2023-09-19T15:08:32;27.30;38.50
70986;DHT22;58645;43.068;25.610;2023-09-19T15:11:01;27.40;38.60
70986;DHT22;58645;43.068;25.610;2023-09-19T15:13:33;27.40;38.60
70986;DHT22;58645;43.068;25.610;2023-09-19T15:16:06;27.50;38.40
70986;DHT22;58645;43.068;25.610;2023-09-19T15:18:36;27.50;38.60
70986;DHT22;58645;43.068;25.610;2023-09-19T15:21:07;27.40;38.80
70986;DHT22;58645;43.068;25.610;2023-09-19T15:23:33;27.40;39.30
70986;DHT22;58645;43.068;25.610;2023-09-19T15:26:03;27.30;39.70
70986;DHT22;58645;43.068;25.610;2023-09-19T15:28:30;27.20;39.50
70986;DHT22;58645;43.068;25.610;2023-09-19T15:31:03;27.10;40.10
70986;DHT22;58645;43.068;25.610;2023-09-19T15:33:30;27.10;40.30
70986;DHT22;58645;43.068;25.610;2023-09-19T15:36:15;27.00;40.50
70986;DHT22;58645;43.068;25.610;2023-09-19T15:38:55;26.90;40.20
70986;DHT22;58645;43.068;25.610;2023-09-19T15:41:23;26.90;40.20
70986;DHT22;58645;43.068;25.610;2023-09-19T15:43:49;26.90;40.20
70986;DHT22;58645;43.068;25.610;2023-09-19T15:46:15;26.80;40.20
70986;DHT22;58645;43.068;25.610;2023-09-19T15:48:41;26.70;40.10
70986;DHT22;58645;43.068;25.610;2023-09-19T15:51:08;26.70;40.30
70986;DHT22;58645;43.068;25.610;2023-09-19T15:53:57;26.60;40.20
70986;DHT22;58645;43.068;25.610;2023-09-19T15:56:23;26.60;40.60
70986;DHT22;58645;43.068;25.610;2023-09-19T15:58:55;26.50;40.80
70986;DHT22;58645;43.068;25.610;2023-09-19T16:01:21;26.40;41.10
70986;DHT22;58645;43.068;25.610;2023-09-19T16:03:49;26.40;42.20
70986;DHT22;58645;43.068;25.610;2023-09-19T16:06:17;26.20;43.80
70986;DHT22;58645;43.068;25.610;2023-09-19T16:08:45;26.00;44.70
70986;DHT22;58645;43.068;25.610;2023-09-19T16:11:12;25.90;44.70
70986;DHT22;58645;43.068;25.610;2023-09-19T16:13:39;25.80;44.90
70986;DHT22;58645;43.068;25.610;2023-09-19T16:16:09;25.70;45.40
70986;DHT22;58645;43.068;25.610;2023-09-19T16:18:55;25.60;45.50
70986;DHT22;58645;43.068;25.610;2023-09-19T16:21:27;25.50;46.80
70986;DHT22;58645;43.068;25.610;2023-09-19T16:23:54;25.30;48.00
70986;DHT22;58645;43.068;25.610;2023-09-19T16:26:20;25.20;48.20
70986;DHT22;58645;43.068;25.610;2023-09-19T16:28:47;25.10;47.90
70986;DHT22;58645;43.068;25.610;2023-09-19T16:31:13;25.10;48.90
70986;DHT22;58645;43.068;25.610;2023-09-19T16:33:40;25.00;50.10
70986;DHT22;58645;43.068;25.610;2023-09-19T16:38:37;24.80;50.50
70986;DHT22;58645;43.068;25.610;2023-09-19T16:41:04;24.70;51.20
70986;DHT22;58645;43.068;25.610;2023-09-19T16:43:30;24.60;51.20
70986;DHT22;58645;43.068;25.610;2023-09-19T16:46:01;24.50;51.30
70986;DHT22;58645;43.068;25.610;2023-09-19T16:48:28;24.50;52.10
70986;DHT22;58645;43.068;25.610;2023-09-19T16:51:02;24.40;53.00
70986;DHT22;58645;43.068;25.610;2023-09-19T16:53:29;24.30;53.50
70986;DHT22;58645;43.068;25.610;2023-09-19T16:56:00;24.30;54.10
70986;DHT22;58645;43.068;25.610;2023-09-19T16:58:25;24.20;54.10